createdAt,value
2018-09-19T00:00:14.793Z,0
2018-09-19T00:00:55.589Z,0
2018-09-19T00:01:36.363Z,0
2018-09-19T00:02:17.116Z,0
2018-09-19T00:02:57.808Z,0
2018-09-19T00:03:38.585Z,0
2018-09-19T00:04:19.393Z,0
2018-09-19T00:05:00.149Z,0
2018-09-19T00:05:40.902Z,0
2018-09-19T00:06:21.689Z,0
2018-09-19T00:07:02.488Z,0
2018-09-19T00:07:43.271Z,0
2018-09-19T00:08:24.034Z,0
2018-09-19T00:09:04.831Z,0
2018-09-19T00:09:45.609Z,0
2018-09-19T00:10:26.384Z,0
2018-09-19T00:11:07.149Z,0
2018-09-19T00:11:48.029Z,0
2018-09-19T00:12:28.801Z,0
2018-09-19T00:13:09.516Z,0
2018-09-19T00:13:50.345Z,0
2018-09-19T00:14:31.146Z,0
2018-09-19T00:15:11.885Z,0
2018-09-19T00:15:52.649Z,0
2018-09-19T00:16:33.373Z,0
2018-09-19T00:17:14.217Z,0
2018-09-19T00:17:55.045Z,0
2018-09-19T00:18:35.888Z,0
2018-09-19T00:19:16.662Z,0
2018-09-19T00:19:57.434Z,0
2018-09-19T00:20:38.194Z,0
2018-09-19T00:21:18.940Z,0
2018-09-19T00:21:59.719Z,0
2018-09-19T00:22:40.476Z,0
2018-09-19T00:23:21.195Z,0
2018-09-19T00:24:02.052Z,0
2018-09-19T00:24:42.866Z,0
2018-09-19T00:25:23.606Z,0
2018-09-19T00:26:04.364Z,0
2018-09-19T00:26:45.175Z,0
2018-09-19T00:27:25.930Z,0
2018-09-19T00:28:06.641Z,0
2018-09-19T00:28:47.446Z,0
2018-09-19T00:29:28.143Z,0
2018-09-19T00:30:08.939Z,0
2018-09-19T00:30:49.710Z,0
2018-09-19T00:31:30.496Z,0
2018-09-19T00:32:11.244Z,0
2018-09-19T00:32:52.027Z,0
2018-09-19T00:33:32.813Z,0
2018-09-19T00:34:13.602Z,0
2018-09-19T00:34:54.323Z,0
2018-09-19T00:35:35.084Z,0
2018-09-19T00:36:15.854Z,0
2018-09-19T00:36:56.715Z,0
2018-09-19T00:37:37.563Z,0
2018-09-19T00:38:18.346Z,0
2018-09-19T00:38:59.108Z,0
2018-09-19T00:39:39.832Z,0
2018-09-19T00:40:20.658Z,0
2018-09-19T00:41:01.432Z,0
2018-09-19T00:41:42.245Z,0
2018-09-19T00:42:22.991Z,0
2018-09-19T00:43:03.744Z,0
2018-09-19T00:43:44.563Z,0
2018-09-19T00:44:25.370Z,0
2018-09-19T00:45:06.130Z,0
2018-09-19T00:45:46.824Z,0
2018-09-19T00:46:27.580Z,0
2018-09-19T00:47:08.350Z,0
2018-09-19T00:47:49.151Z,0
2018-09-19T00:48:29.919Z,0
2018-09-19T00:49:10.692Z,0
2018-09-19T00:49:51.501Z,0
2018-09-19T00:50:32.264Z,0
2018-09-19T00:51:13.131Z,0
2018-09-19T00:51:53.873Z,0
2018-09-19T00:52:34.603Z,0
2018-09-19T00:53:15.356Z,0
2018-09-19T00:53:56.105Z,0
2018-09-19T00:54:36.869Z,0
2018-09-19T00:55:17.645Z,0
2018-09-19T00:55:58.514Z,0
2018-09-19T00:56:39.201Z,0
2018-09-19T00:57:19.992Z,0
2018-09-19T00:58:00.797Z,0
2018-09-19T00:58:41.558Z,0
2018-09-19T00:59:22.321Z,0
2018-09-19T01:00:03.047Z,0
2018-09-19T01:00:43.827Z,0
2018-09-19T01:01:24.608Z,0
2018-09-19T01:02:05.344Z,0
2018-09-19T01:02:46.207Z,0
2018-09-19T01:03:26.933Z,0
2018-09-19T01:04:07.747Z,0
2018-09-19T01:04:48.463Z,0
2018-09-19T01:05:29.183Z,0
2018-09-19T01:06:10.057Z,0
2018-09-19T01:06:50.845Z,0
2018-09-19T01:07:31.581Z,0
2018-09-19T01:08:12.327Z,0
2018-09-19T01:08:53.055Z,0
2018-09-19T01:09:33.902Z,0
2018-09-19T01:10:14.686Z,0
2018-09-19T01:10:55.531Z,0
2018-09-19T01:11:36.301Z,0
2018-09-19T01:12:17.080Z,0
2018-09-19T01:12:57.854Z,0
2018-09-19T01:13:38.638Z,0
2018-09-19T01:14:19.449Z,0
2018-09-19T01:15:00.185Z,0
2018-09-19T01:15:40.955Z,0
2018-09-19T01:16:21.769Z,0
2018-09-19T01:17:02.581Z,0
2018-09-19T01:17:43.385Z,0
2018-09-19T01:18:24.115Z,0
2018-09-19T01:19:04.877Z,0
2018-09-19T01:19:45.701Z,0
2018-09-19T01:20:26.419Z,0
2018-09-19T01:21:07.139Z,0
2018-09-19T01:21:47.883Z,0
2018-09-19T01:22:28.676Z,0
2018-09-19T01:23:09.490Z,0
2018-09-19T01:23:50.234Z,0
2018-09-19T01:24:31.017Z,0
2018-09-19T01:25:11.861Z,0
2018-09-19T01:25:52.688Z,0
2018-09-19T01:26:33.463Z,0
2018-09-19T01:27:14.175Z,0
2018-09-19T01:27:54.882Z,0
2018-09-19T01:28:35.593Z,0
2018-09-19T01:29:16.392Z,0
2018-09-19T01:29:57.214Z,0
2018-09-19T01:30:38.052Z,0
2018-09-19T01:31:18.768Z,0
2018-09-19T01:31:59.499Z,0
2018-09-19T01:32:40.273Z,0
2018-09-19T01:33:21.083Z,0
2018-09-19T01:34:01.743Z,0
2018-09-19T01:34:42.443Z,0
2018-09-19T01:35:23.199Z,0
2018-09-19T01:36:04.055Z,0
2018-09-19T01:36:44.795Z,0
2018-09-19T01:37:25.528Z,0
2018-09-19T01:38:06.333Z,0
2018-09-19T01:38:47.163Z,0
2018-09-19T01:39:27.985Z,0
2018-09-19T01:40:08.710Z,0
2018-09-19T01:40:49.505Z,0
2018-09-19T01:41:30.370Z,0
2018-09-19T01:42:11.057Z,0
2018-09-19T01:42:51.857Z,0
2018-09-19T01:43:32.637Z,0
2018-09-19T01:44:13.419Z,0
2018-09-19T01:44:54.190Z,0
2018-09-19T01:45:35.023Z,0
2018-09-19T01:46:15.748Z,0
2018-09-19T01:46:56.517Z,0
2018-09-19T01:47:37.280Z,0
2018-09-19T01:48:18.035Z,0
2018-09-19T01:48:58.891Z,0
2018-09-19T01:49:39.720Z,0
2018-09-19T01:50:20.437Z,0
2018-09-19T01:51:01.249Z,0
2018-09-19T01:51:42.019Z,0
2018-09-19T01:52:22.859Z,0
2018-09-19T01:53:03.660Z,0
2018-09-19T01:53:44.393Z,0
2018-09-19T01:54:25.188Z,0
2018-09-19T01:55:05.985Z,0
2018-09-19T01:55:46.744Z,0
2018-09-19T01:56:27.559Z,0
2018-09-19T01:57:08.346Z,0
2018-09-19T01:57:49.107Z,0
2018-09-19T01:58:29.934Z,0
2018-09-19T01:59:10.652Z,0
2018-09-19T01:59:51.353Z,0
2018-09-19T02:00:32.074Z,0
2018-09-19T02:01:12.789Z,0
2018-09-19T02:01:53.630Z,0
2018-09-19T02:02:34.412Z,0
2018-09-19T02:03:15.214Z,0
2018-09-19T02:03:55.940Z,0
2018-09-19T02:04:36.661Z,0
2018-09-19T02:05:17.385Z,0
2018-09-19T02:05:58.184Z,0
2018-09-19T02:06:38.984Z,0
2018-09-19T02:07:19.724Z,0
2018-09-19T02:08:00.495Z,0
2018-09-19T02:08:41.301Z,0
2018-09-19T02:09:22.150Z,0
2018-09-19T02:10:02.920Z,0
2018-09-19T02:10:43.647Z,0
2018-09-19T02:11:24.473Z,0
2018-09-19T02:12:05.224Z,0
2018-09-19T02:12:45.937Z,0
2018-09-19T02:13:26.654Z,0
2018-09-19T02:14:07.380Z,0
2018-09-19T02:14:48.249Z,0
2018-09-19T02:15:29.012Z,0
2018-09-19T02:16:09.750Z,0
2018-09-19T02:16:50.646Z,0
2018-09-19T02:17:31.402Z,0
2018-09-19T02:18:12.248Z,0
2018-09-19T02:18:52.967Z,0
2018-09-19T02:19:33.699Z,0
2018-09-19T02:20:14.471Z,0
2018-09-19T02:20:55.230Z,0
2018-09-19T02:21:36.022Z,0
2018-09-19T02:22:16.860Z,0
2018-09-19T02:22:57.704Z,0
2018-09-19T02:23:38.460Z,0
2018-09-19T02:24:19.205Z,0
2018-09-19T02:25:00.040Z,0
2018-09-19T02:25:40.805Z,0
2018-09-19T02:26:21.581Z,0
2018-09-19T02:27:02.273Z,0
2018-09-19T02:27:43.111Z,0
2018-09-19T02:28:23.954Z,0
2018-09-19T02:29:04.791Z,0
2018-09-19T02:29:45.603Z,0
2018-09-19T02:30:26.366Z,0
2018-09-19T02:31:07.115Z,0
2018-09-19T02:31:47.842Z,0
2018-09-19T02:32:28.647Z,0
2018-09-19T02:33:09.380Z,0
2018-09-19T02:33:50.106Z,0
2018-09-19T02:34:30.915Z,0
2018-09-19T02:35:11.684Z,0
2018-09-19T02:35:52.515Z,0
2018-09-19T02:36:33.264Z,0
2018-09-19T02:37:14.046Z,0
2018-09-19T02:37:54.823Z,0
2018-09-19T02:38:35.636Z,0
2018-09-19T02:39:16.461Z,0
2018-09-19T02:39:57.289Z,0
2018-09-19T02:40:38.062Z,0
2018-09-19T02:41:18.788Z,0
2018-09-19T02:41:59.562Z,0
2018-09-19T02:42:40.347Z,0
2018-09-19T02:43:21.112Z,0
2018-09-19T02:44:01.862Z,0
2018-09-19T02:44:42.628Z,0
2018-09-19T02:45:23.410Z,0
2018-09-19T02:46:04.184Z,0
2018-09-19T02:46:44.923Z,0
2018-09-19T02:47:25.697Z,0
2018-09-19T02:48:06.567Z,0
2018-09-19T02:48:47.412Z,0
2018-09-19T02:49:28.177Z,0
2018-09-19T02:50:08.944Z,0
2018-09-19T02:50:49.808Z,0
2018-09-19T02:51:30.584Z,0
2018-09-19T02:52:11.391Z,0
2018-09-19T02:52:52.113Z,0
2018-09-19T02:53:32.850Z,0
2018-09-19T02:54:13.708Z,0
2018-09-19T02:54:54.441Z,0
2018-09-19T02:55:35.288Z,0
2018-09-19T02:56:15.995Z,0
2018-09-19T02:56:56.708Z,0
2018-09-19T02:57:37.438Z,0
2018-09-19T02:58:18.208Z,0
2018-09-19T02:58:58.997Z,0
2018-09-19T02:59:39.711Z,0
2018-09-19T03:00:20.496Z,0
2018-09-19T03:01:01.344Z,0
2018-09-19T03:01:42.209Z,0
2018-09-19T03:02:22.995Z,0
2018-09-19T03:03:03.711Z,0
2018-09-19T03:03:44.431Z,0
2018-09-19T03:04:25.178Z,0
2018-09-19T03:05:06.005Z,0
2018-09-19T03:05:46.771Z,0
2018-09-19T03:06:27.600Z,0
2018-09-19T03:07:08.320Z,0
2018-09-19T03:07:49.096Z,0
2018-09-19T03:08:29.913Z,0
2018-09-19T03:09:10.651Z,0
2018-09-19T03:09:51.380Z,0
2018-09-19T03:10:32.094Z,0
2018-09-19T03:11:12.906Z,0
2018-09-19T03:11:53.698Z,0
2018-09-19T03:12:34.527Z,0
2018-09-19T03:13:15.343Z,0
2018-09-19T03:13:56.095Z,0
2018-09-19T03:14:36.872Z,0
2018-09-19T03:15:17.663Z,0
2018-09-19T03:15:58.504Z,0
2018-09-19T03:16:39.270Z,0
2018-09-19T03:17:20.178Z,0
2018-09-19T03:18:00.824Z,0
2018-09-19T03:18:41.697Z,0
2018-09-19T03:19:22.545Z,0
2018-09-19T03:20:03.301Z,0
2018-09-19T03:20:44.040Z,0
2018-09-19T03:21:24.886Z,0
2018-09-19T03:22:05.617Z,0
2018-09-19T03:22:46.355Z,0
2018-09-19T03:23:27.135Z,0
2018-09-19T03:24:07.865Z,0
2018-09-19T03:24:48.685Z,0
2018-09-19T03:25:29.416Z,0
2018-09-19T03:26:10.203Z,0
2018-09-19T03:26:51.048Z,0
2018-09-19T03:27:31.804Z,0
2018-09-19T03:28:12.662Z,0
2018-09-19T03:28:53.368Z,0
2018-09-19T03:29:34.124Z,0
2018-09-19T03:30:14.899Z,0
2018-09-19T03:30:55.667Z,0
2018-09-19T03:31:36.510Z,0
2018-09-19T03:32:17.394Z,0
2018-09-19T03:32:58.208Z,0
2018-09-19T03:33:38.928Z,0
2018-09-19T03:34:19.774Z,0
2018-09-19T03:35:00.541Z,0
2018-09-19T03:35:41.260Z,0
2018-09-19T03:36:21.972Z,0
2018-09-19T03:37:02.728Z,0
2018-09-19T03:37:43.552Z,0
2018-09-19T03:38:24.325Z,0
2018-09-19T03:39:05.110Z,0
2018-09-19T03:39:45.903Z,0
2018-09-19T03:40:26.712Z,0
2018-09-19T03:41:07.568Z,0
2018-09-19T03:41:48.309Z,0
2018-09-19T03:42:29.079Z,0
2018-09-19T03:43:09.869Z,0
2018-09-19T03:43:50.727Z,0
2018-09-19T03:44:31.542Z,0
2018-09-19T03:45:12.305Z,0
2018-09-19T03:45:53.068Z,0
2018-09-19T03:46:33.918Z,0
2018-09-19T03:47:14.773Z,0
2018-09-19T03:47:55.568Z,0
2018-09-19T03:48:36.330Z,0
2018-09-19T03:49:17.068Z,0
2018-09-19T03:49:57.829Z,0
2018-09-19T03:50:38.620Z,0
2018-09-19T03:51:19.428Z,0
2018-09-19T03:52:00.180Z,0
2018-09-19T03:52:40.986Z,0
2018-09-19T03:53:21.796Z,0
2018-09-19T03:54:02.637Z,0
2018-09-19T03:54:43.438Z,0
2018-09-19T03:55:24.164Z,0
2018-09-19T03:56:04.945Z,0
2018-09-19T03:56:45.749Z,0
2018-09-19T03:57:26.481Z,0
2018-09-19T03:58:07.331Z,0
2018-09-19T03:58:48.045Z,0
2018-09-19T03:59:28.829Z,0
2018-09-19T04:00:09.625Z,0
2018-09-19T04:00:50.411Z,0
2018-09-19T04:01:31.235Z,0
2018-09-19T04:02:12.117Z,0
2018-09-19T04:02:52.961Z,0
2018-09-19T04:03:33.683Z,0
2018-09-19T04:04:14.429Z,0
2018-09-19T04:04:55.138Z,0
2018-09-19T04:05:35.956Z,0
2018-09-19T04:06:16.773Z,0
2018-09-19T04:06:57.573Z,0
2018-09-19T04:07:38.355Z,0
2018-09-19T04:08:19.063Z,0
2018-09-19T04:08:59.837Z,0
2018-09-19T04:09:40.693Z,0
2018-09-19T04:10:21.424Z,0
2018-09-19T04:11:02.129Z,0
2018-09-19T04:11:42.879Z,0
2018-09-19T04:12:23.645Z,0
2018-09-19T04:13:04.462Z,0
2018-09-19T04:13:45.271Z,0
2018-09-19T04:14:26.089Z,0
2018-09-19T04:15:06.854Z,0
2018-09-19T04:15:47.580Z,0
2018-09-19T04:16:28.385Z,0
2018-09-19T04:17:09.249Z,0
2018-09-19T04:17:50.028Z,0
2018-09-19T04:18:30.715Z,0
2018-09-19T04:19:11.553Z,0
2018-09-19T04:19:52.343Z,0
2018-09-19T04:20:33.187Z,0
2018-09-19T04:21:13.913Z,0
2018-09-19T04:21:54.633Z,0
2018-09-19T04:22:35.468Z,0
2018-09-19T04:23:16.229Z,0
2018-09-19T04:23:57.035Z,0
2018-09-19T04:24:37.842Z,0
2018-09-19T04:25:18.561Z,0
2018-09-19T04:25:59.284Z,0
2018-09-19T04:26:40.069Z,0
2018-09-19T04:27:20.864Z,0
2018-09-19T04:28:01.641Z,0
2018-09-19T04:28:42.498Z,0
2018-09-19T04:29:23.269Z,0
2018-09-19T04:30:04.131Z,0
2018-09-19T04:30:44.888Z,0
2018-09-19T04:31:25.672Z,0
2018-09-19T04:32:06.534Z,0
2018-09-19T04:32:47.293Z,0
2018-09-19T04:33:28.121Z,0
2018-09-19T04:34:08.843Z,0
2018-09-19T04:34:49.603Z,0
2018-09-19T04:35:30.441Z,0
2018-09-19T04:36:11.193Z,0
2018-09-19T04:36:51.973Z,0
2018-09-19T04:37:32.758Z,0
2018-09-19T04:38:13.514Z,0
2018-09-19T04:38:54.431Z,0
2018-09-19T04:39:35.214Z,0
2018-09-19T04:40:16.070Z,0
2018-09-19T04:40:56.823Z,0
2018-09-19T04:41:37.630Z,0
2018-09-19T04:42:18.379Z,0
2018-09-19T04:42:59.135Z,0
2018-09-19T04:43:39.938Z,0
2018-09-19T04:44:20.663Z,0
2018-09-19T04:45:01.580Z,0
2018-09-19T04:45:42.381Z,0
2018-09-19T04:46:23.139Z,0
2018-09-19T04:47:03.863Z,0
2018-09-19T04:47:44.623Z,0
2018-09-19T04:48:25.342Z,0
2018-09-19T04:49:06.181Z,0
2018-09-19T04:49:46.944Z,0
2018-09-19T04:50:27.909Z,0
2018-09-19T04:51:08.575Z,0
2018-09-19T04:51:49.290Z,0
2018-09-19T04:52:30.198Z,0
2018-09-19T04:53:11.071Z,0
2018-09-19T04:53:51.793Z,0
2018-09-19T04:54:32.598Z,0
2018-09-19T04:55:13.346Z,0
2018-09-19T04:55:54.206Z,0
2018-09-19T04:56:35.034Z,0
2018-09-19T04:57:15.877Z,0
2018-09-19T04:57:56.647Z,0
2018-09-19T04:58:37.394Z,0
2018-09-19T04:59:18.151Z,0
2018-09-19T04:59:58.940Z,0
2018-09-19T05:00:39.733Z,0
2018-09-19T05:01:20.433Z,0
2018-09-19T05:02:01.130Z,0
2018-09-19T05:02:41.952Z,0
2018-09-19T05:03:22.807Z,0
2018-09-19T05:04:03.551Z,0
2018-09-19T05:04:44.256Z,0
2018-09-19T05:05:25.079Z,0
2018-09-19T05:06:05.939Z,0
2018-09-19T05:06:46.693Z,0
2018-09-19T05:07:27.513Z,0
2018-09-19T05:08:08.178Z,0
2018-09-19T05:08:49.052Z,0
2018-09-19T05:09:29.796Z,0
2018-09-19T05:10:10.534Z,0
2018-09-19T05:10:51.313Z,0
2018-09-19T05:11:32.220Z,0
2018-09-19T05:12:12.985Z,0
2018-09-19T05:12:53.736Z,0
2018-09-19T05:13:34.485Z,0
2018-09-19T05:14:15.221Z,0
2018-09-19T05:14:56.004Z,0
2018-09-19T05:15:36.826Z,0
2018-09-19T05:16:17.716Z,0
2018-09-19T05:16:58.494Z,0
2018-09-19T05:17:39.211Z,0
2018-09-19T05:18:19.960Z,0
2018-09-19T05:19:00.793Z,0
2018-09-19T05:19:41.598Z,0
2018-09-19T05:20:22.347Z,0
2018-09-19T05:21:03.071Z,0
2018-09-19T05:21:43.872Z,0
2018-09-19T05:22:24.696Z,0
2018-09-19T05:23:05.501Z,0
2018-09-19T05:23:46.264Z,0
2018-09-19T05:24:27.005Z,0
2018-09-19T05:25:07.754Z,0
2018-09-19T05:25:48.470Z,0
2018-09-19T05:26:29.264Z,0
2018-09-19T05:27:09.998Z,0
2018-09-19T05:27:50.857Z,0
2018-09-19T05:28:31.667Z,0
2018-09-19T05:29:12.482Z,0
2018-09-19T05:29:53.314Z,0
2018-09-19T05:30:34.057Z,0
2018-09-19T05:31:14.841Z,0
2018-09-19T05:31:55.588Z,0
2018-09-19T05:32:36.442Z,0
2018-09-19T05:33:17.215Z,0
2018-09-19T05:33:58.015Z,0
2018-09-19T05:34:38.730Z,0
2018-09-19T05:35:19.510Z,0
2018-09-19T05:36:00.344Z,0
2018-09-19T05:36:41.983Z,0
2018-09-19T05:37:22.728Z,0
2018-09-19T05:38:03.431Z,0
2018-09-19T05:38:44.198Z,0
2018-09-19T05:39:25.046Z,0
2018-09-19T05:40:05.835Z,0
2018-09-19T05:40:46.592Z,0
2018-09-19T05:41:27.387Z,0
2018-09-19T05:42:08.181Z,0
2018-09-19T05:42:48.987Z,0
2018-09-19T05:43:29.754Z,0
2018-09-19T05:44:10.553Z,0
2018-09-19T05:44:51.420Z,0
2018-09-19T05:45:32.191Z,0
2018-09-19T05:46:12.962Z,0
2018-09-19T05:46:53.707Z,0
2018-09-19T05:47:34.411Z,0
2018-09-19T05:48:15.259Z,0
2018-09-19T05:48:56.095Z,0
2018-09-19T05:49:36.939Z,0
2018-09-19T05:50:17.697Z,0
2018-09-19T05:50:58.452Z,0
2018-09-19T05:51:39.294Z,0
2018-09-19T05:52:20.087Z,0
2018-09-19T05:53:00.898Z,0
2018-09-19T05:53:41.572Z,0
2018-09-19T05:54:22.393Z,0
2018-09-19T05:55:03.213Z,0
2018-09-19T05:55:44.003Z,0
2018-09-19T05:56:24.767Z,0
2018-09-19T05:57:05.515Z,0
2018-09-19T05:57:46.363Z,0
2018-09-19T05:58:27.146Z,0
2018-09-19T05:59:07.872Z,0
2018-09-19T05:59:48.572Z,0
2018-09-19T06:00:29.329Z,0
2018-09-19T06:01:10.150Z,0
2018-09-19T06:01:50.926Z,0
2018-09-19T06:02:31.753Z,0
2018-09-19T06:03:12.573Z,0
2018-09-19T06:03:53.415Z,0
2018-09-19T06:04:34.249Z,0
2018-09-19T06:05:15.004Z,0
2018-09-19T06:05:55.719Z,0
2018-09-19T06:06:36.446Z,0
2018-09-19T06:07:17.252Z,0
2018-09-19T06:07:58.004Z,0
2018-09-19T06:08:38.866Z,0
2018-09-19T06:09:19.634Z,0
2018-09-19T06:10:00.386Z,0
2018-09-19T06:10:41.266Z,0
2018-09-19T06:11:22.036Z,0
2018-09-19T06:12:02.781Z,0
2018-09-19T06:12:43.595Z,0
2018-09-19T06:13:24.322Z,0
2018-09-19T06:14:05.179Z,0
2018-09-19T06:14:46.178Z,0
2018-09-19T06:15:26.820Z,0
2018-09-19T06:16:07.766Z,0
2018-09-19T06:16:48.621Z,0
2018-09-19T06:17:29.536Z,0
2018-09-19T06:18:10.367Z,0
2018-09-19T06:18:51.205Z,0
2018-09-19T06:19:32.077Z,0
2018-09-19T06:20:13.333Z,0
2018-09-19T06:20:53.857Z,0
2018-09-19T06:21:34.600Z,0
2018-09-19T06:22:15.344Z,0
2018-09-19T06:22:56.262Z,0
2018-09-19T06:23:37.152Z,0
2018-09-19T06:24:17.937Z,0
2018-09-19T06:24:58.696Z,0
2018-09-19T06:25:39.478Z,0
2018-09-19T06:26:20.205Z,0
2018-09-19T06:27:01.106Z,0
2018-09-19T06:27:41.835Z,0
2018-09-19T06:28:22.569Z,0
2018-09-19T06:29:03.406Z,0
2018-09-19T06:29:44.149Z,0
2018-09-19T06:30:24.977Z,0
2018-09-19T06:31:05.718Z,5
2018-09-19T06:31:46.508Z,5
2018-09-19T06:32:27.244Z,5
2018-09-19T06:33:08.152Z,5
2018-09-19T06:33:48.815Z,5
2018-09-19T06:34:29.656Z,5
2018-09-19T06:35:10.422Z,5
2018-09-19T06:35:51.172Z,5
2018-09-19T06:36:32.013Z,5
2018-09-19T06:37:12.842Z,15
2018-09-19T06:37:53.644Z,25
2018-09-19T06:38:34.386Z,35
2018-09-19T06:39:15.182Z,60
2018-09-19T06:39:56.014Z,80
2018-09-19T06:40:36.786Z,90
2018-09-19T06:41:17.549Z,95
2018-09-19T06:41:58.347Z,95
2018-09-19T06:42:39.152Z,100
2018-09-19T06:43:19.854Z,105
2018-09-19T06:44:00.546Z,105
2018-09-19T06:44:41.386Z,105
2018-09-19T06:45:22.174Z,100
2018-09-19T06:46:02.951Z,100
2018-09-19T06:46:43.787Z,100
2018-09-19T06:47:24.583Z,100
2018-09-19T06:48:05.393Z,105
2018-09-19T06:48:46.181Z,110
2018-09-19T06:49:26.944Z,110
2018-09-19T06:50:07.773Z,110
2018-09-19T06:50:48.594Z,110
2018-09-19T06:51:29.318Z,110
2018-09-19T06:52:10.098Z,115
2018-09-19T06:52:50.869Z,120
2018-09-19T06:53:31.677Z,120
2018-09-19T06:54:12.459Z,115
2018-09-19T06:54:53.270Z,115
2018-09-19T06:55:34.112Z,120
2018-09-19T06:56:14.939Z,120
2018-09-19T06:56:55.743Z,115
2018-09-19T06:57:36.493Z,115
2018-09-19T06:58:17.249Z,120
2018-09-19T06:58:58.025Z,120
2018-09-19T06:59:38.895Z,125
2018-09-19T07:00:19.597Z,115
2018-09-19T07:01:00.478Z,115
2018-09-19T07:01:41.261Z,110
2018-09-19T07:02:21.960Z,110
2018-09-19T07:03:02.812Z,90
2018-09-19T07:03:43.537Z,60
2018-09-19T07:04:24.291Z,40
2018-09-19T07:05:05.043Z,20
2018-09-19T07:05:45.782Z,15
2018-09-19T07:06:26.620Z,15
2018-09-19T07:07:07.409Z,20
2018-09-19T07:07:48.251Z,20
2018-09-19T07:08:29.007Z,20
2018-09-19T07:09:09.734Z,15
2018-09-19T07:09:50.485Z,15
2018-09-19T07:10:31.306Z,15
2018-09-19T07:11:12.116Z,15
2018-09-19T07:11:52.885Z,15
2018-09-19T07:12:33.606Z,15
2018-09-19T07:13:14.389Z,15
2018-09-19T07:13:55.209Z,15
2018-09-19T07:14:36.008Z,15
2018-09-19T07:15:16.749Z,15
2018-09-19T07:15:57.478Z,15
2018-09-19T07:16:38.253Z,15
2018-09-19T07:17:19.054Z,15
2018-09-19T07:17:59.872Z,15
2018-09-19T07:18:40.737Z,15
2018-09-19T07:19:21.481Z,15
2018-09-19T07:20:02.225Z,15
2018-09-19T07:20:43.002Z,15
2018-09-19T07:21:23.789Z,10
2018-09-19T07:22:04.516Z,10
2018-09-19T07:22:45.295Z,10
2018-09-19T07:23:26.066Z,10
2018-09-19T07:24:06.874Z,10
2018-09-19T07:24:47.654Z,10
2018-09-19T07:25:28.422Z,10
2018-09-19T07:26:09.263Z,10
2018-09-19T07:26:50.123Z,10
2018-09-19T07:27:31.006Z,10
2018-09-19T07:28:11.722Z,10
2018-09-19T07:28:52.476Z,10
2018-09-19T07:29:33.325Z,10
2018-09-19T07:30:14.051Z,10
2018-09-19T07:30:54.775Z,10
2018-09-19T07:31:35.497Z,10
2018-09-19T07:32:16.251Z,10
2018-09-19T07:32:57.088Z,10
2018-09-19T07:33:37.868Z,10
2018-09-19T07:34:18.632Z,10
2018-09-19T07:34:59.428Z,10
2018-09-19T07:35:40.180Z,10
2018-09-19T07:36:20.900Z,10
2018-09-19T07:37:01.685Z,10
2018-09-19T07:37:42.519Z,10
2018-09-19T07:38:23.224Z,10
2018-09-19T07:39:04.010Z,10
2018-09-19T07:39:44.827Z,10
2018-09-19T07:40:25.719Z,10
2018-09-19T07:41:06.416Z,10
2018-09-19T07:41:47.111Z,10
2018-09-19T07:42:27.877Z,10
2018-09-19T07:43:08.670Z,10
2018-09-19T07:43:49.529Z,10
2018-09-19T07:44:30.299Z,10
2018-09-19T07:45:11.103Z,10
2018-09-19T07:45:51.797Z,10
2018-09-19T07:46:32.670Z,5
2018-09-19T07:47:13.405Z,5
2018-09-19T07:47:54.166Z,5
2018-09-19T07:48:34.918Z,5
2018-09-19T07:49:15.658Z,5
2018-09-19T07:49:56.439Z,5
2018-09-19T07:50:37.309Z,5
2018-09-19T07:51:18.127Z,5
2018-09-19T07:51:58.912Z,5
2018-09-19T07:52:39.700Z,5
2018-09-19T07:53:20.452Z,5
2018-09-19T07:54:01.271Z,5
2018-09-19T07:54:42.129Z,5
2018-09-19T07:55:22.857Z,5
2018-09-19T07:56:03.560Z,5
2018-09-19T07:56:44.408Z,5
2018-09-19T07:57:25.225Z,5
2018-09-19T07:58:06.019Z,5
2018-09-19T07:58:46.795Z,5
2018-09-19T07:59:27.571Z,5
2018-09-19T08:00:08.437Z,5
2018-09-19T08:00:49.266Z,5
2018-09-19T08:01:29.908Z,5
2018-09-19T08:02:10.616Z,5
2018-09-19T08:02:51.409Z,5
2018-09-19T08:03:32.205Z,5
2018-09-19T08:04:12.937Z,5
2018-09-19T08:04:53.692Z,5
2018-09-19T08:05:34.609Z,5
2018-09-19T08:06:15.411Z,5
2018-09-19T08:06:56.200Z,5
2018-09-19T08:07:36.946Z,5
2018-09-19T08:08:17.686Z,5
2018-09-19T08:08:58.466Z,5
2018-09-19T08:09:39.216Z,5
2018-09-19T08:10:20.020Z,5
2018-09-19T08:11:00.831Z,5
2018-09-19T08:11:41.567Z,5
2018-09-19T08:12:22.332Z,5
2018-09-19T08:13:03.255Z,5
2018-09-19T08:13:44.067Z,5
2018-09-19T08:14:24.831Z,5
2018-09-19T08:15:05.547Z,5
2018-09-19T08:15:46.332Z,5
2018-09-19T08:16:27.228Z,5
2018-09-19T08:17:07.917Z,5
2018-09-19T08:17:48.691Z,5
2018-09-19T08:18:29.504Z,5
2018-09-19T08:19:10.326Z,5
2018-09-19T08:19:51.123Z,5
2018-09-19T08:20:31.910Z,5
2018-09-19T08:21:12.662Z,5
2018-09-19T08:21:53.491Z,5
2018-09-19T08:22:34.298Z,5
2018-09-19T08:23:14.993Z,5
2018-09-19T08:23:55.725Z,5
2018-09-19T08:24:36.571Z,5
2018-09-19T08:25:17.433Z,5
2018-09-19T08:25:58.344Z,5
2018-09-19T08:26:39.053Z,5
2018-09-19T08:27:19.766Z,5
2018-09-19T08:28:00.519Z,5
2018-09-19T08:28:41.275Z,5
2018-09-19T08:29:22.099Z,5
2018-09-19T08:30:02.849Z,5
2018-09-19T08:30:43.631Z,5
2018-09-19T08:31:24.520Z,5
2018-09-19T08:32:05.279Z,5
2018-09-19T08:32:46.117Z,5
2018-09-19T08:33:26.819Z,5
2018-09-19T08:34:07.589Z,5
2018-09-19T08:34:48.426Z,5
2018-09-19T08:35:29.191Z,5
2018-09-19T08:36:09.963Z,5
2018-09-19T08:36:50.706Z,5
2018-09-19T08:37:31.495Z,5
2018-09-19T08:38:12.295Z,5
2018-09-19T08:38:53.062Z,5
2018-09-19T08:39:33.818Z,5
2018-09-19T08:40:14.613Z,5
2018-09-19T08:40:55.364Z,5
2018-09-19T08:41:36.163Z,5
2018-09-19T08:42:16.982Z,5
2018-09-19T08:42:57.701Z,5
2018-09-19T08:43:38.479Z,5
2018-09-19T08:44:19.311Z,5
2018-09-19T08:45:00.128Z,5
2018-09-19T08:45:40.980Z,5
2018-09-19T08:46:21.731Z,5
2018-09-19T08:47:02.478Z,5
2018-09-19T08:47:43.346Z,5
2018-09-19T08:48:24.098Z,5
2018-09-19T08:49:04.899Z,5
2018-09-19T08:49:45.646Z,5
2018-09-19T08:50:26.404Z,5
2018-09-19T08:51:07.264Z,5
2018-09-19T08:51:48.082Z,5
2018-09-19T08:52:28.858Z,5
2018-09-19T08:53:09.582Z,5
2018-09-19T08:53:50.344Z,5
2018-09-19T08:54:31.077Z,5
2018-09-19T08:55:11.952Z,5
2018-09-19T08:55:52.745Z,5
2018-09-19T08:56:33.456Z,5
2018-09-19T08:57:14.304Z,5
2018-09-19T08:57:55.004Z,5
2018-09-19T08:58:35.892Z,5
2018-09-19T08:59:16.613Z,5
2018-09-19T08:59:57.357Z,5
2018-09-19T09:00:38.071Z,5
2018-09-19T09:01:18.872Z,5
2018-09-19T09:01:59.640Z,5
2018-09-19T09:02:40.434Z,5
2018-09-19T09:03:21.258Z,5
2018-09-19T09:04:02.003Z,5
2018-09-19T09:04:42.777Z,5
2018-09-19T09:05:23.605Z,5
2018-09-19T09:06:04.261Z,5
2018-09-19T09:06:44.991Z,5
2018-09-19T09:07:25.752Z,5
2018-09-19T09:08:06.583Z,5
2018-09-19T09:08:47.449Z,5
2018-09-19T09:09:28.231Z,5
2018-09-19T09:10:08.955Z,5
2018-09-19T09:10:49.768Z,5
2018-09-19T09:11:30.561Z,5
2018-09-19T09:12:11.401Z,5
2018-09-19T09:12:52.057Z,5
2018-09-19T09:13:32.835Z,5
2018-09-19T09:14:13.666Z,5
2018-09-19T09:14:54.419Z,5
2018-09-19T09:15:35.194Z,5
2018-09-19T09:16:15.940Z,5
2018-09-19T09:16:56.823Z,5
2018-09-19T09:17:37.636Z,5
2018-09-19T09:18:18.447Z,5
2018-09-19T09:18:59.201Z,5
2018-09-19T09:19:40.001Z,5
2018-09-19T09:20:20.753Z,5
2018-09-19T09:21:01.511Z,5
2018-09-19T09:21:42.314Z,5
2018-09-19T09:22:23.031Z,5
2018-09-19T09:23:03.771Z,5
2018-09-19T09:23:44.591Z,5
2018-09-19T09:24:25.361Z,5
2018-09-19T09:25:06.201Z,5
2018-09-19T09:25:46.913Z,5
2018-09-19T09:26:27.730Z,5
2018-09-19T09:27:08.631Z,5
2018-09-19T09:27:49.333Z,5
2018-09-19T09:28:30.081Z,5
2018-09-19T09:29:10.819Z,5
2018-09-19T09:29:51.618Z,5
2018-09-19T09:30:32.378Z,5
2018-09-19T09:31:13.169Z,10
2018-09-19T09:31:53.906Z,10
2018-09-19T09:34:14.798Z,10
2018-09-19T09:34:55.611Z,10
2018-09-19T09:35:36.353Z,10
2018-09-19T09:36:17.164Z,10
2018-09-19T09:36:58.088Z,10
2018-09-19T09:37:38.784Z,10
2018-09-19T09:38:19.526Z,10
2018-09-19T09:39:00.247Z,10
2018-09-19T09:39:41.044Z,10
2018-09-19T09:40:21.986Z,10
2018-09-19T09:41:02.714Z,10
2018-09-19T09:41:43.488Z,10
2018-09-19T09:42:24.317Z,10
2018-09-19T09:43:05.107Z,10
2018-09-19T09:43:45.904Z,10
2018-09-19T09:44:26.654Z,10
2018-09-19T09:45:07.432Z,10
2018-09-19T09:45:48.318Z,10
2018-09-19T09:46:29.026Z,10
2018-09-19T09:47:09.824Z,10
2018-09-19T09:47:50.618Z,10
2018-09-19T09:48:31.383Z,10
2018-09-19T09:49:12.218Z,10
2018-09-19T09:49:53.019Z,10
2018-09-19T09:50:33.845Z,10
2018-09-19T09:51:14.542Z,10
2018-09-19T09:51:55.318Z,10
2018-09-19T09:52:36.055Z,10
2018-09-19T09:53:16.864Z,10
2018-09-19T09:53:57.591Z,10
2018-09-19T09:54:38.342Z,10
2018-09-19T09:55:19.214Z,10
2018-09-19T09:55:59.992Z,10
2018-09-19T09:56:40.856Z,10
2018-09-19T09:57:21.592Z,10
2018-09-19T09:58:02.341Z,10
2018-09-19T09:58:43.177Z,10
2018-09-19T09:59:23.919Z,10
2018-09-19T10:00:04.693Z,10